Terminal Aerodrome Forecast
Issued by NWS

Home | Current Version | Previous Version | Text Only | Print | Product List | Glossary Off
Versions: 1 2 3 4 5 6 7 8 9 10 11 12 13 14 15 16 17 18 19 20 21 22 23

000
FTUS43 KABR 252300
TAFPIR
TAF
KPIR 252330Z 2600/2624 36015KT P6SM SCT015 OVC050
      TEMPO 2600/2604 2SM -SN BR BKN015
     FM260900 34010KT P6SM OVC025
     FM262000 33008KT P6SM SCT150=

USA.gov is the U.S. government's official web portal to all federal, state and local government web resources and services.